AAL1238 KLAX-KSLC
Flight info
| Callsign | AAL1238 |
|---|---|
| Flight time | 1h 31m |
| Altitude | 35000 |
| Route | ORCKA5 LAS Q70 BLIPP Q842 WINEN MLF PITTT2 |
| Aircraft | A20N/M-SDE2E3FGHIRWXY/LB1 |
Departure
| Time | 2026-04-21 01:24 |
|---|---|
| Airport | Los Angeles International Airport (KLAX) |
Arrival
| Time | 2026-04-21 02:55 |
|---|---|
| Airport | Salt Lake City International Airport (KSLC) |
| Time | Latitude | Longitude | Altitude | Speed | Heading |
|---|---|---|---|---|---|
| 2026-04-21 00:58 | 33.94145 | -118.40152 | 125 ft | 0 kts | 275° |
| 2026-04-21 01:03 | 33.94145 | -118.40151 | 125 ft | 0 kts | 275° |
| 2026-04-21 01:09 | 33.94145 | -118.40143 | 125 ft | 2 kts | 272° |
| 2026-04-21 01:10 | 33.94145 | -118.40119 | 125 ft | 3 kts | 255° |
| 2026-04-21 01:10 | 33.94153 | -118.40098 | 120 ft | 3 kts | 225° |
| 2026-04-21 01:10 | 33.94166 | -118.40088 | 123 ft | 2 kts | 179° |
| 2026-04-21 01:10 | 33.94170 | -118.40088 | 124 ft | 2 kts | 173° |
| 2026-04-21 01:18 | 33.94124 | -118.40082 | 125 ft | 11 kts | 173° |
| 2026-04-21 01:19 | 33.94036 | -118.40069 | 123 ft | 14 kts | 173° |
| 2026-04-21 01:19 | 33.93937 | -118.40053 | 123 ft | 10 kts | 173° |
| 2026-04-21 01:19 | 33.93881 | -118.40004 | 122 ft | 11 kts | 112° |
| 2026-04-21 01:19 | 33.93887 | -118.39906 | 124 ft | 13 kts | 83° |
| 2026-04-21 01:20 | 33.93901 | -118.39781 | 125 ft | 16 kts | 83° |
| 2026-04-21 01:20 | 33.93914 | -118.39644 | 125 ft | 17 kts | 83° |
| 2026-04-21 01:20 | 33.93929 | -118.39497 | 124 ft | 18 kts | 83° |
| 2026-04-21 01:20 | 33.93946 | -118.39341 | 125 ft | 19 kts | 83° |
| 2026-04-21 01:21 | 33.93963 | -118.39175 | 123 ft | 21 kts | 83° |
| 2026-04-21 01:21 | 33.93978 | -118.39024 | 125 ft | 18 kts | 83° |
| 2026-04-21 01:21 | 33.93994 | -118.38871 | 125 ft | 19 kts | 83° |
| 2026-04-21 01:21 | 33.94010 | -118.38707 | 123 ft | 20 kts | 83° |
| 2026-04-21 01:22 | 33.94028 | -118.38533 | 125 ft | 21 kts | 83° |
| 2026-04-21 01:22 | 33.94045 | -118.38377 | 125 ft | 13 kts | 83° |
| 2026-04-21 01:22 | 33.93995 | -118.38328 | 123 ft | 10 kts | 174° |
| 2026-04-21 01:22 | 33.93948 | -118.38380 | 125 ft | 11 kts | 262° |
| 2026-04-21 01:23 | 33.93948 | -118.38388 | 125 ft | 0 kts | 265° |
| 2026-04-21 01:23 | 33.93948 | -118.38389 | 125 ft | 0 kts | 265° |
| 2026-04-21 01:23 | 33.93947 | -118.38396 | 123 ft | 2 kts | 265° |
| 2026-04-21 01:23 | 33.93942 | -118.38456 | 125 ft | 26 kts | 263° |
| 2026-04-21 01:24 | 33.93891 | -118.38940 | 126 ft | 88 kts | 263° |
| 2026-04-21 01:24 | 33.93794 | -118.39879 | 124 ft | 135 kts | 263° |
| 2026-04-21 01:24 | 33.93674 | -118.41123 | 355 ft | 153 kts | 264° |
| 2026-04-21 01:24 | 33.93570 | -118.42397 | 943 ft | 153 kts | 267° |
| 2026-04-21 01:25 | 33.93537 | -118.43663 | 1531 ft | 153 kts | 266° |
| 2026-04-21 01:25 | 33.93499 | -118.44961 | 1992 ft | 160 kts | 265° |
| 2026-04-21 01:25 | 33.93166 | -118.46331 | 2205 ft | 184 kts | 243° |
| 2026-04-21 01:25 | 33.92566 | -118.47811 | 2416 ft | 209 kts | 246° |
| 2026-04-21 01:26 | 33.91940 | -118.49500 | 2708 ft | 233 kts | 247° |
| 2026-04-21 01:26 | 33.91267 | -118.51377 | 3113 ft | 253 kts | 246° |
| 2026-04-21 01:26 | 33.90566 | -118.53360 | 3845 ft | 259 kts | 246° |
| 2026-04-21 01:26 | 33.89858 | -118.55377 | 4662 ft | 263 kts | 245° |
| 2026-04-21 01:27 | 33.89140 | -118.57430 | 5443 ft | 268 kts | 244° |
| 2026-04-21 01:27 | 33.88415 | -118.59508 | 6282 ft | 270 kts | 244° |
| 2026-04-21 01:27 | 33.87466 | -118.61439 | 7039 ft | 268 kts | 225° |
| 2026-04-21 01:27 | 33.85969 | -118.62754 | 7772 ft | 269 kts | 202° |
| 2026-04-21 01:28 | 33.84161 | -118.63201 | 8514 ft | 270 kts | 179° |
| 2026-04-21 01:28 | 33.82323 | -118.62694 | 9276 ft | 275 kts | 155° |
| 2026-04-21 01:28 | 33.80801 | -118.61270 | 9933 ft | 284 kts | 130° |
| 2026-04-21 01:28 | 33.79930 | -118.59107 | 10577 ft | 296 kts | 105° |
| 2026-04-21 01:29 | 33.79956 | -118.56607 | 11184 ft | 309 kts | 77° |
| 2026-04-21 01:29 | 33.80989 | -118.54346 | 11754 ft | 321 kts | 47° |
| 2026-04-21 01:29 | 33.82758 | -118.52594 | 12011 ft | 341 kts | 37° |
| 2026-04-21 01:29 | 33.84737 | -118.50866 | 12143 ft | 362 kts | 36° |
| 2026-04-21 01:30 | 33.86841 | -118.49081 | 12446 ft | 375 kts | 36° |
| 2026-04-21 01:30 | 33.89001 | -118.47255 | 12984 ft | 381 kts | 36° |
| 2026-04-21 01:30 | 33.91178 | -118.45398 | 13555 ft | 386 kts | 37° |
| 2026-04-21 01:30 | 33.93185 | -118.43232 | 14088 ft | 389 kts | 49° |
| 2026-04-21 01:31 | 33.94823 | -118.40620 | 14594 ft | 392 kts | 58° |
| 2026-04-21 01:31 | 33.96338 | -118.37924 | 15095 ft | 396 kts | 58° |
| 2026-04-21 01:31 | 33.97897 | -118.35159 | 15596 ft | 399 kts | 58° |
| 2026-04-21 01:31 | 33.99471 | -118.32372 | 16106 ft | 403 kts | 58° |
| 2026-04-21 01:32 | 34.01061 | -118.29562 | 16611 ft | 407 kts | 58° |
| 2026-04-21 01:32 | 34.02668 | -118.26730 | 17118 ft | 411 kts | 58° |
| 2026-04-21 01:32 | 34.04268 | -118.23916 | 17610 ft | 415 kts | 58° |
| 2026-04-21 01:32 | 34.05913 | -118.21024 | 18115 ft | 419 kts | 58° |
| 2026-04-21 01:33 | 34.07566 | -118.18110 | 18592 ft | 423 kts | 58° |
| 2026-04-21 01:33 | 34.09228 | -118.15170 | 19088 ft | 426 kts | 58° |
| 2026-04-21 01:33 | 34.10902 | -118.12200 | 19611 ft | 428 kts | 58° |
| 2026-04-21 01:33 | 34.12584 | -118.09215 | 20120 ft | 431 kts | 58° |
| 2026-04-21 01:34 | 34.14278 | -118.06208 | 20619 ft | 434 kts | 58° |
| 2026-04-21 01:34 | 34.15981 | -118.03189 | 21159 ft | 435 kts | 58° |
| 2026-04-21 01:34 | 34.17690 | -118.00162 | 21662 ft | 437 kts | 58° |
| 2026-04-21 01:34 | 34.18829 | -117.98145 | 21989 ft | 439 kts | 58° |
| 2026-04-21 01:35 | 34.20549 | -117.95088 | 22459 ft | 441 kts | 58° |
| 2026-04-21 01:35 | 34.22845 | -117.91005 | 23073 ft | 445 kts | 58° |
| 2026-04-21 01:35 | 34.24589 | -117.87899 | 23551 ft | 448 kts | 58° |
| 2026-04-21 01:35 | 34.26341 | -117.84773 | 23936 ft | 450 kts | 58° |
| 2026-04-21 01:36 | 34.28102 | -117.81626 | 24312 ft | 452 kts | 58° |
| 2026-04-21 01:36 | 34.29274 | -117.79532 | 24561 ft | 454 kts | 58° |
| 2026-04-21 01:36 | 34.31047 | -117.76358 | 24907 ft | 456 kts | 58° |
| 2026-04-21 01:36 | 34.32824 | -117.73174 | 25282 ft | 458 kts | 58° |
| 2026-04-21 01:37 | 34.34612 | -117.69974 | 25622 ft | 460 kts | 58° |
| 2026-04-21 01:37 | 34.36429 | -117.66771 | 25963 ft | 462 kts | 57° |
| 2026-04-21 01:37 | 34.38299 | -117.63595 | 26291 ft | 464 kts | 56° |
| 2026-04-21 01:37 | 34.40209 | -117.60429 | 26608 ft | 466 kts | 55° |
| 2026-04-21 01:38 | 34.42139 | -117.57263 | 26917 ft | 468 kts | 55° |
| 2026-04-21 01:38 | 34.44052 | -117.54120 | 27233 ft | 469 kts | 55° |
| 2026-04-21 01:38 | 34.45991 | -117.50906 | 27581 ft | 472 kts | 56° |
| 2026-04-21 01:38 | 34.47924 | -117.47672 | 27903 ft | 474 kts | 56° |
| 2026-04-21 01:39 | 34.49830 | -117.44457 | 28233 ft | 475 kts | 56° |
| 2026-04-21 01:39 | 34.51754 | -117.41193 | 28569 ft | 476 kts | 56° |
| 2026-04-21 01:39 | 34.53687 | -117.37912 | 28932 ft | 477 kts | 56° |
| 2026-04-21 01:39 | 34.55617 | -117.34646 | 29390 ft | 475 kts | 55° |
| 2026-04-21 01:40 | 34.57545 | -117.31392 | 29854 ft | 474 kts | 55° |
| 2026-04-21 01:40 | 34.59444 | -117.28187 | 30279 ft | 473 kts | 55° |
| 2026-04-21 01:40 | 34.61372 | -117.24937 | 30631 ft | 472 kts | 55° |
| 2026-04-21 01:40 | 34.63287 | -117.21704 | 30950 ft | 473 kts | 55° |
| 2026-04-21 01:41 | 34.65212 | -117.18447 | 31192 ft | 473 kts | 56° |
| 2026-04-21 01:41 | 34.67129 | -117.15199 | 31518 ft | 473 kts | 56° |
| 2026-04-21 01:41 | 34.69046 | -117.11949 | 31877 ft | 473 kts | 56° |
| 2026-04-21 01:41 | 34.70959 | -117.08697 | 32222 ft | 472 kts | 56° |
| 2026-04-21 01:42 | 34.72869 | -117.05440 | 32576 ft | 472 kts | 56° |
| 2026-04-21 01:42 | 34.74758 | -117.02218 | 32929 ft | 472 kts | 56° |
| 2026-04-21 01:42 | 34.76666 | -116.98963 | 33272 ft | 472 kts | 56° |
| 2026-04-21 01:42 | 34.78575 | -116.95708 | 33616 ft | 472 kts | 56° |
| 2026-04-21 01:43 | 34.80484 | -116.92454 | 33940 ft | 472 kts | 56° |
| 2026-04-21 01:43 | 34.82394 | -116.89200 | 34220 ft | 472 kts | 56° |
| 2026-04-21 01:43 | 34.84301 | -116.85947 | 34515 ft | 471 kts | 56° |
| 2026-04-21 01:43 | 34.86202 | -116.82697 | 34810 ft | 470 kts | 56° |
| 2026-04-21 01:44 | 34.88080 | -116.79482 | 34915 ft | 472 kts | 56° |
| 2026-04-21 01:44 | 34.89996 | -116.76198 | 34940 ft | 478 kts | 56° |
| 2026-04-21 01:44 | 34.94213 | -116.69841 | 34932 ft | 484 kts | 47° |
| 2026-04-21 01:45 | 34.98783 | -116.63835 | 34919 ft | 485 kts | 47° |
| 2026-04-21 01:45 | 35.03383 | -116.57782 | 34898 ft | 485 kts | 47° |
| 2026-04-21 01:46 | 35.07971 | -116.51740 | 34885 ft | 485 kts | 47° |
| 2026-04-21 01:46 | 35.12526 | -116.45715 | 34869 ft | 485 kts | 47° |
| 2026-04-21 01:47 | 35.17109 | -116.39628 | 34918 ft | 485 kts | 47° |
| 2026-04-21 01:47 | 35.21653 | -116.33599 | 34907 ft | 485 kts | 47° |
| 2026-04-21 01:48 | 35.26234 | -116.27517 | 34894 ft | 485 kts | 47° |
| 2026-04-21 01:48 | 35.30805 | -116.21421 | 34885 ft | 485 kts | 48° |
| 2026-04-21 01:49 | 35.35343 | -116.15360 | 34884 ft | 485 kts | 47° |
| 2026-04-21 01:49 | 35.39917 | -116.09242 | 34900 ft | 485 kts | 47° |
| 2026-04-21 01:50 | 35.44474 | -116.03146 | 34906 ft | 485 kts | 47° |
| 2026-04-21 01:50 | 35.49006 | -115.97076 | 34923 ft | 485 kts | 47° |
| 2026-04-21 01:51 | 35.53557 | -115.90964 | 34912 ft | 485 kts | 48° |
| 2026-04-21 01:51 | 35.58100 | -115.84843 | 34942 ft | 484 kts | 48° |
| 2026-04-21 01:52 | 35.64886 | -115.75670 | 34955 ft | 484 kts | 48° |
| 2026-04-21 01:53 | 35.69397 | -115.69496 | 34958 ft | 484 kts | 49° |
| 2026-04-21 01:53 | 35.73875 | -115.63305 | 34943 ft | 484 kts | 49° |
| 2026-04-21 01:54 | 35.78342 | -115.57111 | 34965 ft | 483 kts | 49° |
| 2026-04-21 01:54 | 35.82822 | -115.50920 | 34980 ft | 483 kts | 49° |
| 2026-04-21 01:55 | 35.87291 | -115.44743 | 34975 ft | 482 kts | 50° |
| 2026-04-21 01:55 | 35.91727 | -115.38602 | 34973 ft | 482 kts | 50° |
| 2026-04-21 01:56 | 35.96198 | -115.32400 | 34961 ft | 482 kts | 50° |
| 2026-04-21 01:56 | 36.00619 | -115.26241 | 34977 ft | 481 kts | 50° |
| 2026-04-21 01:57 | 36.05055 | -115.20048 | 34954 ft | 480 kts | 50° |
| 2026-04-21 01:57 | 36.09706 | -115.14102 | 34953 ft | 482 kts | 42° |
| 2026-04-21 01:58 | 36.14777 | -115.08666 | 34952 ft | 482 kts | 42° |
| 2026-04-21 01:58 | 36.19809 | -115.03256 | 34888 ft | 482 kts | 43° |
| 2026-04-21 01:59 | 36.24868 | -114.97798 | 34884 ft | 481 kts | 43° |
| 2026-04-21 01:59 | 36.29908 | -114.92345 | 34886 ft | 480 kts | 43° |
| 2026-04-21 02:00 | 36.34941 | -114.86891 | 34870 ft | 480 kts | 43° |
| 2026-04-21 02:00 | 36.39942 | -114.81461 | 34853 ft | 479 kts | 43° |
| 2026-04-21 02:01 | 36.44966 | -114.76015 | 34845 ft | 479 kts | 43° |
| 2026-04-21 02:01 | 36.49987 | -114.70560 | 34831 ft | 478 kts | 43° |
| 2026-04-21 02:02 | 36.54992 | -114.65086 | 34829 ft | 478 kts | 43° |
| 2026-04-21 02:02 | 36.59960 | -114.59654 | 34823 ft | 478 kts | 43° |
| 2026-04-21 02:03 | 36.64962 | -114.54191 | 34826 ft | 478 kts | 43° |
| 2026-04-21 02:03 | 36.69962 | -114.48719 | 34833 ft | 478 kts | 42° |
| 2026-04-21 02:04 | 36.75430 | -114.44043 | 34835 ft | 479 kts | 33° |
| 2026-04-21 02:04 | 36.81072 | -114.39628 | 34838 ft | 479 kts | 33° |
| 2026-04-21 02:05 | 36.86724 | -114.35203 | 34843 ft | 479 kts | 33° |
| 2026-04-21 02:05 | 36.92364 | -114.30768 | 34851 ft | 479 kts | 33° |
| 2026-04-21 02:06 | 36.98004 | -114.26323 | 34853 ft | 478 kts | 33° |
| 2026-04-21 02:06 | 37.03599 | -114.21916 | 34887 ft | 478 kts | 33° |
| 2026-04-21 02:07 | 37.09216 | -114.17476 | 34884 ft | 477 kts | 33° |
| 2026-04-21 02:07 | 37.14829 | -114.13024 | 34899 ft | 477 kts | 33° |
| 2026-04-21 02:08 | 37.20440 | -114.08562 | 34899 ft | 476 kts | 33° |
| 2026-04-21 02:08 | 37.26035 | -114.04118 | 34905 ft | 476 kts | 33° |
| 2026-04-21 02:09 | 37.31596 | -113.99709 | 34921 ft | 475 kts | 33° |
| 2026-04-21 02:09 | 37.37182 | -113.95260 | 34932 ft | 474 kts | 33° |
| 2026-04-21 02:10 | 37.42755 | -113.90791 | 34929 ft | 474 kts | 33° |
| 2026-04-21 02:10 | 37.48315 | -113.86334 | 34940 ft | 473 kts | 33° |
| 2026-04-21 02:11 | 37.53851 | -113.81902 | 34945 ft | 473 kts | 33° |
| 2026-04-21 02:11 | 37.59401 | -113.77439 | 34951 ft | 473 kts | 33° |
| 2026-04-21 02:12 | 37.64949 | -113.72974 | 34956 ft | 472 kts | 33° |
| 2026-04-21 02:12 | 37.70444 | -113.68547 | 34962 ft | 471 kts | 33° |
| 2026-04-21 02:13 | 37.75959 | -113.64092 | 34967 ft | 470 kts | 33° |
| 2026-04-21 02:13 | 37.81463 | -113.59636 | 34972 ft | 470 kts | 33° |
| 2026-04-21 02:14 | 37.86981 | -113.55166 | 34948 ft | 470 kts | 33° |
| 2026-04-21 02:14 | 37.92459 | -113.50701 | 34945 ft | 470 kts | 36° |
| 2026-04-21 02:15 | 37.97452 | -113.45361 | 34943 ft | 469 kts | 43° |
| 2026-04-21 02:15 | 38.02322 | -113.39839 | 34946 ft | 469 kts | 42° |
| 2026-04-21 02:16 | 38.07161 | -113.34338 | 34954 ft | 468 kts | 42° |
| 2026-04-21 02:16 | 38.12017 | -113.28810 | 34958 ft | 468 kts | 43° |
| 2026-04-21 02:17 | 38.16863 | -113.23289 | 34974 ft | 467 kts | 43° |
| 2026-04-21 02:17 | 38.21701 | -113.17755 | 34995 ft | 467 kts | 42° |
| 2026-04-21 02:18 | 38.26536 | -113.12229 | 35019 ft | 467 kts | 43° |
| 2026-04-21 02:18 | 38.31334 | -113.06741 | 35041 ft | 466 kts | 42° |
| 2026-04-21 02:19 | 38.36354 | -113.01531 | 35057 ft | 465 kts | 31° |
| 2026-04-21 02:19 | 38.42210 | -112.98045 | 35056 ft | 464 kts | 22° |
| 2026-04-21 02:20 | 38.48133 | -112.94906 | 35053 ft | 464 kts | 22° |
| 2026-04-21 02:20 | 38.54084 | -112.91727 | 35032 ft | 463 kts | 22° |
| 2026-04-21 02:21 | 38.60045 | -112.88532 | 35011 ft | 464 kts | 22° |
| 2026-04-21 02:21 | 38.66003 | -112.85335 | 34978 ft | 464 kts | 22° |
| 2026-04-21 02:22 | 38.71958 | -112.82139 | 34935 ft | 464 kts | 22° |
| 2026-04-21 02:22 | 38.77876 | -112.78962 | 34937 ft | 463 kts | 22° |
| 2026-04-21 02:23 | 38.83822 | -112.75758 | 34934 ft | 462 kts | 22° |
| 2026-04-21 02:23 | 38.89745 | -112.72558 | 34932 ft | 460 kts | 22° |
| 2026-04-21 02:24 | 38.95612 | -112.69393 | 34935 ft | 459 kts | 22° |
| 2026-04-21 02:24 | 39.01496 | -112.66208 | 34919 ft | 458 kts | 22° |
| 2026-04-21 02:25 | 39.06376 | -112.63554 | 34919 ft | 458 kts | 22° |
| 2026-04-21 02:25 | 39.12209 | -112.60385 | 34888 ft | 449 kts | 22° |
| 2026-04-21 02:26 | 39.18888 | -112.56753 | 34894 ft | 447 kts | 22° |
| 2026-04-21 02:26 | 39.23654 | -112.54149 | 34895 ft | 447 kts | 22° |
| 2026-04-21 02:27 | 39.29376 | -112.51037 | 34889 ft | 446 kts | 20° |
| 2026-04-21 02:27 | 39.35355 | -112.48853 | 34898 ft | 446 kts | 13° |
| 2026-04-21 02:27 | 39.38360 | -112.47864 | 34793 ft | 445 kts | 13° |
| 2026-04-21 02:28 | 39.41370 | -112.46874 | 33661 ft | 448 kts | 13° |
| 2026-04-21 02:28 | 39.44387 | -112.45877 | 32657 ft | 446 kts | 13° |
| 2026-04-21 02:28 | 39.47374 | -112.44884 | 31746 ft | 441 kts | 13° |
| 2026-04-21 02:28 | 39.50290 | -112.43910 | 30955 ft | 435 kts | 13° |
| 2026-04-21 02:29 | 39.53210 | -112.42935 | 30130 ft | 431 kts | 12° |
| 2026-04-21 02:29 | 39.56105 | -112.41972 | 29082 ft | 429 kts | 12° |
| 2026-04-21 02:29 | 39.59020 | -112.41003 | 27698 ft | 435 kts | 12° |
| 2026-04-21 02:29 | 39.61959 | -112.40025 | 26865 ft | 428 kts | 12° |
| 2026-04-21 02:30 | 39.64799 | -112.39074 | 26389 ft | 414 kts | 12° |
| 2026-04-21 02:30 | 39.67533 | -112.38159 | 25751 ft | 407 kts | 12° |
| 2026-04-21 02:30 | 39.70267 | -112.37244 | 25067 ft | 402 kts | 12° |
| 2026-04-21 02:30 | 39.72968 | -112.36338 | 24389 ft | 398 kts | 12° |
| 2026-04-21 02:31 | 39.75631 | -112.35444 | 23716 ft | 394 kts | 12° |
| 2026-04-21 02:31 | 39.78269 | -112.34564 | 22965 ft | 390 kts | 12° |
| 2026-04-21 02:31 | 39.80891 | -112.33691 | 22145 ft | 386 kts | 12° |
| 2026-04-21 02:31 | 39.83476 | -112.32827 | 21709 ft | 382 kts | 12° |
| 2026-04-21 02:32 | 39.86036 | -112.31970 | 21462 ft | 386 kts | 12° |
| 2026-04-21 02:32 | 39.88643 | -112.31092 | 21208 ft | 386 kts | 12° |
| 2026-04-21 02:32 | 39.91229 | -112.30219 | 20888 ft | 382 kts | 12° |
| 2026-04-21 02:32 | 39.93792 | -112.29354 | 20425 ft | 380 kts | 12° |
| 2026-04-21 02:33 | 39.96352 | -112.28490 | 19952 ft | 380 kts | 12° |
| 2026-04-21 02:33 | 39.98910 | -112.27624 | 19484 ft | 379 kts | 13° |
| 2026-04-21 02:33 | 40.01471 | -112.26760 | 19013 ft | 379 kts | 13° |
| 2026-04-21 02:33 | 40.04035 | -112.25897 | 18556 ft | 379 kts | 13° |
| 2026-04-21 02:34 | 40.06588 | -112.25038 | 18109 ft | 378 kts | 13° |
| 2026-04-21 02:34 | 40.09133 | -112.24179 | 17622 ft | 376 kts | 13° |
| 2026-04-21 02:34 | 40.11657 | -112.23323 | 17211 ft | 373 kts | 13° |
| 2026-04-21 02:34 | 40.14127 | -112.22484 | 16802 ft | 370 kts | 13° |
| 2026-04-21 02:35 | 40.16612 | -112.21638 | 16366 ft | 368 kts | 13° |
| 2026-04-21 02:35 | 40.19088 | -112.20798 | 15930 ft | 366 kts | 13° |
| 2026-04-21 02:35 | 40.21553 | -112.19961 | 15490 ft | 365 kts | 13° |
| 2026-04-21 02:35 | 40.24006 | -112.19128 | 15065 ft | 364 kts | 13° |
| 2026-04-21 02:36 | 40.26451 | -112.18295 | 14636 ft | 363 kts | 13° |
| 2026-04-21 02:36 | 40.28892 | -112.17463 | 14200 ft | 362 kts | 13° |
| 2026-04-21 02:36 | 40.31333 | -112.16634 | 13824 ft | 360 kts | 13° |
| 2026-04-21 02:36 | 40.33725 | -112.15821 | 13750 ft | 352 kts | 14° |
| 2026-04-21 02:37 | 40.36102 | -112.15012 | 13619 ft | 352 kts | 13° |
| 2026-04-21 02:37 | 40.38446 | -112.14216 | 13496 ft | 352 kts | 13° |
| 2026-04-21 02:37 | 40.40820 | -112.13407 | 13366 ft | 352 kts | 13° |
| 2026-04-21 02:37 | 40.43186 | -112.12597 | 13238 ft | 351 kts | 13° |
| 2026-04-21 02:38 | 40.45545 | -112.11788 | 13106 ft | 349 kts | 13° |
| 2026-04-21 02:38 | 40.47894 | -112.10968 | 12979 ft | 349 kts | 13° |
| 2026-04-21 02:38 | 40.50243 | -112.10146 | 12855 ft | 348 kts | 14° |
| 2026-04-21 02:38 | 40.52589 | -112.09326 | 12717 ft | 348 kts | 14° |
| 2026-04-21 02:39 | 40.54929 | -112.08516 | 12597 ft | 347 kts | 13° |
| 2026-04-21 02:39 | 40.57267 | -112.07741 | 12433 ft | 346 kts | 13° |
| 2026-04-21 02:39 | 40.59606 | -112.07018 | 12233 ft | 344 kts | 7° |
| 2026-04-21 02:39 | 40.61949 | -112.06998 | 12031 ft | 340 kts | 351° |
| 2026-04-21 02:40 | 40.64292 | -112.07375 | 11789 ft | 339 kts | 350° |
| 2026-04-21 02:40 | 40.66628 | -112.07760 | 11544 ft | 337 kts | 351° |
| 2026-04-21 02:40 | 40.68982 | -112.08155 | 11295 ft | 337 kts | 351° |
| 2026-04-21 02:40 | 40.71274 | -112.08542 | 11060 ft | 336 kts | 350° |
| 2026-04-21 02:41 | 40.73592 | -112.08932 | 10938 ft | 335 kts | 351° |
| 2026-04-21 02:41 | 40.75914 | -112.09312 | 10952 ft | 336 kts | 351° |
| 2026-04-21 02:41 | 40.78249 | -112.09631 | 11009 ft | 336 kts | 353° |
| 2026-04-21 02:41 | 40.80580 | -112.09903 | 11008 ft | 337 kts | 353° |
| 2026-04-21 02:42 | 40.82914 | -112.10156 | 11002 ft | 336 kts | 353° |
| 2026-04-21 02:42 | 40.85236 | -112.10405 | 10693 ft | 333 kts | 353° |
| 2026-04-21 02:42 | 40.87513 | -112.10659 | 10389 ft | 331 kts | 353° |
| 2026-04-21 02:42 | 40.89812 | -112.10926 | 10148 ft | 331 kts | 353° |
| 2026-04-21 02:43 | 40.92115 | -112.11200 | 9919 ft | 329 kts | 353° |
| 2026-04-21 02:43 | 40.94335 | -112.11464 | 9988 ft | 315 kts | 353° |
| 2026-04-21 02:43 | 40.96506 | -112.11723 | 9990 ft | 313 kts | 353° |
| 2026-04-21 02:43 | 40.98680 | -112.11983 | 10002 ft | 313 kts | 353° |
| 2026-04-21 02:44 | 41.00858 | -112.12244 | 10010 ft | 313 kts | 353° |
| 2026-04-21 02:44 | 41.03005 | -112.12499 | 10017 ft | 313 kts | 353° |
| 2026-04-21 02:44 | 41.05170 | -112.12763 | 10030 ft | 312 kts | 353° |
| 2026-04-21 02:44 | 41.07332 | -112.13027 | 10028 ft | 312 kts | 353° |
| 2026-04-21 02:45 | 41.09531 | -112.13291 | 10031 ft | 316 kts | 353° |
| 2026-04-21 02:45 | 41.11713 | -112.13552 | 10016 ft | 315 kts | 353° |
| 2026-04-21 02:45 | 41.13899 | -112.13815 | 10020 ft | 314 kts | 353° |
| 2026-04-21 02:45 | 41.16080 | -112.14077 | 10022 ft | 314 kts | 353° |
| 2026-04-21 02:46 | 41.18264 | -112.14335 | 10024 ft | 314 kts | 354° |
| 2026-04-21 02:46 | 41.20446 | -112.14140 | 10026 ft | 316 kts | 15° |
| 2026-04-21 02:46 | 41.22430 | -112.12931 | 10018 ft | 315 kts | 38° |
| 2026-04-21 02:46 | 41.23921 | -112.10849 | 10026 ft | 310 kts | 60° |
| 2026-04-21 02:47 | 41.24714 | -112.08263 | 10029 ft | 305 kts | 82° |
| 2026-04-21 02:47 | 41.24768 | -112.05492 | 10027 ft | 295 kts | 103° |
| 2026-04-21 02:47 | 41.24139 | -112.03011 | 10025 ft | 274 kts | 123° |
| 2026-04-21 02:47 | 41.23045 | -112.01093 | 10022 ft | 255 kts | 141° |
| 2026-04-21 02:48 | 41.21642 | -111.99765 | 10023 ft | 240 kts | 157° |
| 2026-04-21 02:48 | 41.20077 | -111.99060 | 10027 ft | 236 kts | 173° |
| 2026-04-21 02:48 | 41.18454 | -111.98966 | 10025 ft | 233 kts | 188° |
| 2026-04-21 02:48 | 41.16902 | -111.99456 | 10026 ft | 232 kts | 202° |
| 2026-04-21 02:49 | 41.15432 | -112.00393 | 9898 ft | 235 kts | 200° |
| 2026-04-21 02:49 | 41.13845 | -112.00635 | 9792 ft | 231 kts | 178° |
| 2026-04-21 02:49 | 41.12226 | -112.00585 | 9739 ft | 233 kts | 181° |
| 2026-04-21 02:49 | 41.10606 | -112.00617 | 9686 ft | 233 kts | 182° |
| 2026-04-21 02:50 | 41.08980 | -112.00677 | 9638 ft | 233 kts | 183° |
| 2026-04-21 02:50 | 41.07371 | -112.00741 | 9470 ft | 234 kts | 181° |
| 2026-04-21 02:50 | 41.05752 | -112.00593 | 9194 ft | 233 kts | 177° |
| 2026-04-21 02:50 | 41.04135 | -112.00407 | 8897 ft | 232 kts | 177° |
| 2026-04-21 02:51 | 41.02529 | -112.00223 | 8585 ft | 231 kts | 177° |
| 2026-04-21 02:51 | 41.00922 | -112.00037 | 8273 ft | 231 kts | 176° |
| 2026-04-21 02:51 | 40.99321 | -111.99851 | 7961 ft | 231 kts | 176° |
| 2026-04-21 02:51 | 40.97754 | -111.99669 | 7746 ft | 226 kts | 176° |
| 2026-04-21 02:52 | 40.96162 | -111.99485 | 7363 ft | 231 kts | 175° |
| 2026-04-21 02:52 | 40.94576 | -111.99302 | 7007 ft | 226 kts | 175° |
| 2026-04-21 02:52 | 40.93008 | -111.99119 | 6709 ft | 226 kts | 174° |
| 2026-04-21 02:52 | 40.91447 | -111.98935 | 6467 ft | 225 kts | 175° |
| 2026-04-21 02:53 | 40.89932 | -111.98757 | 6293 ft | 215 kts | 175° |
| 2026-04-21 02:53 | 40.88422 | -111.98578 | 5847 ft | 218 kts | 175° |
| 2026-04-21 02:53 | 40.86939 | -111.98412 | 5452 ft | 206 kts | 176° |
| 2026-04-21 02:53 | 40.85579 | -111.98278 | 5234 ft | 185 kts | 173° |
| 2026-04-21 02:54 | 40.84368 | -111.98116 | 5012 ft | 168 kts | 174° |
| 2026-04-21 02:54 | 40.83278 | -111.97994 | 4794 ft | 152 kts | 173° |
| 2026-04-21 02:54 | 40.82226 | -111.97870 | 4556 ft | 152 kts | 177° |
| 2026-04-21 02:54 | 40.81169 | -111.97746 | 4346 ft | 154 kts | 175° |
| 2026-04-21 02:55 | 40.80125 | -111.97623 | 4237 ft | 137 kts | 175° |
| 2026-04-21 02:55 | 40.79331 | -111.97535 | 4230 ft | 90 kts | 175° |
| 2026-04-21 02:55 | 40.78845 | -111.97479 | 4233 ft | 57 kts | 174° |
| 2026-04-21 02:55 | 40.78541 | -111.97522 | 4231 ft | 38 kts | 204° |
| 2026-04-21 02:56 | 40.78449 | -111.97592 | 4230 ft | 3 kts | 263° |
| 2026-04-21 02:56 | 40.78490 | -111.97656 | 4231 ft | 8 kts | 358° |
| 2026-04-21 02:56 | 40.78554 | -111.97659 | 4231 ft | 11 kts | 355° |
| 2026-04-21 02:57 | 40.78633 | -111.97667 | 4231 ft | 12 kts | 355° |
| 2026-04-21 02:57 | 40.78717 | -111.97677 | 4231 ft | 13 kts | 351° |
| 2026-04-21 02:57 | 40.78755 | -111.97767 | 4231 ft | 13 kts | 264° |
| 2026-04-21 02:57 | 40.78745 | -111.97911 | 4231 ft | 17 kts | 264° |
| 2026-04-21 02:58 | 40.78735 | -111.98066 | 4231 ft | 17 kts | 265° |
| 2026-04-21 02:58 | 40.78726 | -111.98198 | 4231 ft | 10 kts | 265° |
| 2026-04-21 02:58 | 40.78720 | -111.98288 | 4231 ft | 9 kts | 265° |
| 2026-04-21 02:58 | 40.78687 | -111.98334 | 4231 ft | 8 kts | 172° |
| 2026-04-21 02:59 | 40.78639 | -111.98330 | 4231 ft | 0 kts | 179° |
| 2026-04-21 02:59 | 40.78637 | -111.98330 | 4231 ft | 0 kts | 178° |